createdAt,value
2023-04-15T00:01:01.401Z,3.90
2023-04-15T00:03:29.877Z,3.90
2023-04-15T00:05:57.959Z,3.90
2023-04-15T00:08:24.782Z,3.80
2023-04-15T00:10:51.462Z,3.80
2023-04-15T00:13:18.129Z,3.80
2023-04-15T00:15:44.862Z,3.80
2023-04-15T00:18:11.581Z,3.80
2023-04-15T00:20:38.352Z,3.70
2023-04-15T00:23:05.600Z,3.70
2023-04-15T00:25:32.427Z,3.70
2023-04-15T00:27:59.350Z,3.70
2023-04-15T00:30:26.685Z,3.70
2023-04-15T00:32:53.524Z,3.70
2023-04-15T00:35:20.818Z,3.80
2023-04-15T00:37:47.539Z,3.80
2023-04-15T00:40:17.755Z,3.80
2023-04-15T00:42:45.548Z,3.90
2023-04-15T00:45:12.908Z,4.00
2023-04-15T00:47:42.992Z,3.80
2023-04-15T00:50:10.912Z,3.80
2023-04-15T00:52:37.720Z,3.80
2023-04-15T00:55:05.375Z,3.80
2023-04-15T00:57:32.259Z,3.80
2023-04-15T01:00:00.417Z,3.70
2023-04-15T01:02:27.467Z,3.70
2023-04-15T01:04:54.506Z,3.60
2023-04-15T01:07:21.406Z,3.60
2023-04-15T01:09:48.138Z,3.60
2023-04-15T01:12:17.055Z,3.50
2023-04-15T01:14:44.033Z,3.60
2023-04-15T01:17:10.759Z,3.70
2023-04-15T01:19:38.024Z,3.70
2023-04-15T01:22:05.635Z,3.80
2023-04-15T01:24:35.929Z,3.80
2023-04-15T01:27:03.360Z,3.90
2023-04-15T01:29:32.623Z,3.80
2023-04-15T01:31:59.461Z,3.80
2023-04-15T01:34:26.311Z,3.80
2023-04-15T01:36:53.037Z,3.80
2023-04-15T01:39:19.776Z,3.70
2023-04-15T01:41:47.908Z,3.70
2023-04-15T01:44:14.639Z,3.70
2023-04-15T01:46:41.692Z,3.70
2023-04-15T01:49:08.502Z,3.70
2023-04-15T01:51:35.252Z,3.60
2023-04-15T01:54:01.996Z,3.60
2023-04-15T01:56:28.860Z,3.60
2023-04-15T01:58:55.747Z,3.60
2023-04-15T02:01:22.557Z,3.80
2023-04-15T02:03:49.373Z,3.60
2023-04-15T02:06:16.333Z,3.50
2023-04-15T02:08:43.290Z,3.50
2023-04-15T02:11:10.089Z,3.60
2023-04-15T02:13:36.941Z,3.50
2023-04-15T02:16:04.295Z,3.50
2023-04-15T02:18:31.080Z,3.50
2023-04-15T02:20:58.781Z,3.50
2023-04-15T02:23:25.821Z,3.50
2023-04-15T02:25:53.234Z,3.50
2023-04-15T02:28:21.349Z,3.50
2023-04-15T02:30:52.634Z,3.40
2023-04-15T02:33:20.138Z,3.50
2023-04-15T02:35:47.299Z,3.40
2023-04-15T02:38:16.714Z,3.40
2023-04-15T02:40:43.467Z,3.40
2023-04-15T02:43:10.629Z,3.40
2023-04-15T02:45:37.504Z,3.40
2023-04-15T02:48:06.542Z,3.30
2023-04-15T02:50:33.683Z,3.40
2023-04-15T02:53:01.703Z,3.50
2023-04-15T02:55:29.201Z,3.40
2023-04-15T02:57:56.154Z,3.50
2023-04-15T03:00:25.274Z,3.50
2023-04-15T03:02:56.373Z,3.40
2023-04-15T03:05:25.383Z,3.50
2023-04-15T03:07:52.451Z,3.30
2023-04-15T03:10:19.336Z,3.20
2023-04-15T03:12:46.212Z,3.20
2023-04-15T03:15:12.985Z,3.10
2023-04-15T03:17:39.818Z,3.10
2023-04-15T03:20:07.220Z,3.20
2023-04-15T03:22:34.114Z,3.20
2023-04-15T03:25:00.942Z,3.20
2023-04-15T03:27:27.626Z,3.20
2023-04-15T03:29:54.329Z,3.30
2023-04-15T03:32:21.523Z,3.20
2023-04-15T03:34:48.295Z,3.10
2023-04-15T03:37:15.029Z,3.10
2023-04-15T03:39:41.760Z,3.20
2023-04-15T03:42:08.500Z,3.20
2023-04-15T03:44:35.184Z,3.20
2023-04-15T03:47:02.073Z,3.00
2023-04-15T03:49:28.833Z,3.00
2023-04-15T03:51:55.761Z,3.10
2023-04-15T03:54:22.768Z,2.90
2023-04-15T03:56:49.500Z,2.90
2023-04-15T03:59:16.542Z,3.00
2023-04-15T04:01:43.367Z,3.00
2023-04-15T04:04:10.163Z,3.00
2023-04-15T04:06:37.120Z,3.00
2023-04-15T04:09:03.975Z,3.00
2023-04-15T04:11:31.724Z,2.90
2023-04-15T04:13:58.570Z,3.00
2023-04-15T04:16:25.492Z,3.00
2023-04-15T04:18:52.354Z,2.90
2023-04-15T04:21:19.916Z,2.90
2023-04-15T04:23:46.690Z,2.70
2023-04-15T04:26:13.475Z,2.70
2023-04-15T04:28:40.624Z,2.60
2023-04-15T04:31:08.477Z,2.70
2023-04-15T04:33:35.312Z,2.70
2023-04-15T04:36:01.994Z,2.60
2023-04-15T04:38:28.690Z,2.70
2023-04-15T04:40:55.424Z,2.60
2023-04-15T04:43:22.308Z,2.70
2023-04-15T04:45:49.056Z,2.80
2023-04-15T04:48:16.180Z,2.90
2023-04-15T04:50:43.309Z,2.40
2023-04-15T04:53:10.066Z,2.10
2023-04-15T04:55:37.106Z,1.90
2023-04-15T04:58:03.838Z,2.00
2023-04-15T05:00:30.564Z,2.20
2023-04-15T05:02:57.492Z,2.40
2023-04-15T05:05:24.561Z,2.50
2023-04-15T05:07:51.373Z,2.50
2023-04-15T05:10:18.298Z,2.60
2023-04-15T05:12:45.194Z,2.60
2023-04-15T05:15:12.217Z,2.70
2023-04-15T05:17:39.004Z,2.80
2023-04-15T05:20:06.334Z,2.90
2023-04-15T05:22:33.295Z,3.00
2023-04-15T05:24:59.977Z,3.00
2023-04-15T05:27:26.760Z,3.10
2023-04-15T05:29:53.491Z,2.80
2023-04-15T05:32:20.724Z,2.50
2023-04-15T05:34:47.650Z,2.50
2023-04-15T05:37:14.459Z,2.70
2023-04-15T05:39:41.178Z,2.80
2023-04-15T05:42:08.480Z,3.00
2023-04-15T05:44:35.438Z,3.10
2023-04-15T05:47:03.553Z,3.30
2023-04-15T05:49:30.786Z,3.40
2023-04-15T05:51:57.474Z,3.50
2023-04-15T05:54:24.954Z,3.60
2023-04-15T05:56:51.652Z,3.60
2023-04-15T05:59:18.315Z,3.60
2023-04-15T06:01:45.394Z,3.70
2023-04-15T06:04:12.246Z,3.60
2023-04-15T06:06:39.048Z,3.80
2023-04-15T06:09:06.166Z,3.90
2023-04-15T06:11:33.010Z,4.00
2023-04-15T06:13:59.753Z,4.20
2023-04-15T06:16:27.321Z,4.30
2023-04-15T06:18:54.056Z,4.40
2023-04-15T06:21:20.945Z,4.60
2023-04-15T06:23:47.701Z,4.60
2023-04-15T06:26:14.405Z,4.60
2023-04-15T06:28:41.191Z,4.70
2023-04-15T06:31:08.001Z,4.80
2023-04-15T06:33:34.836Z,4.90
2023-04-15T06:36:02.387Z,5.00
2023-04-15T06:38:29.115Z,5.10
2023-04-15T06:40:55.873Z,5.10
2023-04-15T06:43:22.574Z,5.20
2023-04-15T06:45:49.335Z,5.20
2023-04-15T06:48:16.228Z,5.30
2023-04-15T06:50:42.992Z,5.20
2023-04-15T06:53:09.751Z,5.30
2023-04-15T06:55:36.535Z,5.40
2023-04-15T06:58:03.239Z,5.50
2023-04-15T07:00:30.533Z,5.60
2023-04-15T07:02:57.280Z,5.60
2023-04-15T07:05:25.385Z,5.70
2023-04-15T07:07:52.936Z,5.80
2023-04-15T07:10:20.352Z,5.90
2023-04-15T07:12:48.405Z,5.90
2023-04-15T07:15:15.107Z,6.00
2023-04-15T07:17:43.331Z,6.10
2023-04-15T07:20:10.581Z,6.10
2023-04-15T07:22:37.322Z,6.20
2023-04-15T07:25:04.410Z,6.30
2023-04-15T07:27:31.158Z,6.40
2023-04-15T07:29:57.913Z,6.50
2023-04-15T07:32:24.692Z,6.60
2023-04-15T07:34:51.736Z,6.80
2023-04-15T07:37:19.033Z,7.00
2023-04-15T07:39:45.767Z,7.10
2023-04-15T07:42:12.557Z,7.20
2023-04-15T07:44:39.236Z,7.20
2023-04-15T07:47:06.267Z,7.30
2023-04-15T07:49:32.969Z,7.30
2023-04-15T07:52:00.115Z,7.30
2023-04-15T07:54:27.420Z,7.40
2023-04-15T07:56:54.314Z,7.60
2023-04-15T07:59:21.538Z,7.70
2023-04-15T08:01:49.026Z,7.80
2023-04-15T08:04:16.108Z,7.80
2023-04-15T08:06:43.268Z,7.80
2023-04-15T08:09:09.989Z,7.90
2023-04-15T08:11:37.538Z,8.00
2023-04-15T08:14:04.235Z,8.10
2023-04-15T08:16:31.067Z,8.10
2023-04-15T08:18:57.999Z,8.10
2023-04-15T08:21:25.036Z,8.30
2023-04-15T08:23:53.274Z,8.40
2023-04-15T08:26:21.150Z,8.50
2023-04-15T08:28:48.431Z,8.70
2023-04-15T08:31:16.536Z,8.70
2023-04-15T08:33:43.442Z,8.80
2023-04-15T08:36:10.297Z,8.90
2023-04-15T08:38:37.368Z,8.70
2023-04-15T08:41:24.427Z,8.60
2023-04-15T08:43:58.250Z,8.80
2023-04-15T08:46:25.485Z,9.00
2023-04-15T08:48:56.402Z,9.10
2023-04-15T08:51:24.975Z,9.20
2023-04-15T08:53:52.594Z,9.50
2023-04-15T08:56:21.200Z,9.50
2023-04-15T08:58:48.661Z,9.40
2023-04-15T09:01:15.882Z,9.50
2023-04-15T09:03:43.014Z,9.70
2023-04-15T09:06:09.817Z,9.70
2023-04-15T09:08:36.560Z,9.80
2023-04-15T09:11:03.871Z,10.00
2023-04-15T09:13:30.993Z,10.10
2023-04-15T09:16:00.389Z,10.40
2023-04-15T09:18:38.347Z,10.50
2023-04-15T09:21:13.998Z,10.30
2023-04-15T09:23:53.713Z,10.30
2023-04-15T09:26:20.425Z,10.10
2023-04-15T09:28:47.096Z,10.00
2023-04-15T09:31:13.784Z,10.00
2023-04-15T09:33:58.579Z,10.20
2023-04-15T09:36:25.562Z,10.10
2023-04-15T09:39:00.507Z,10.30
2023-04-15T09:41:28.530Z,10.30
2023-04-15T09:43:55.400Z,10.20
2023-04-15T09:46:44.324Z,10.30
2023-04-15T09:49:12.211Z,10.30
2023-04-15T09:51:39.350Z,10.10
2023-04-15T09:54:06.117Z,10.10
2023-04-15T09:56:38.768Z,10.00
2023-04-15T09:59:05.900Z,10.10
2023-04-15T10:01:32.742Z,10.30
2023-04-15T10:04:03.214Z,10.10
2023-04-15T10:06:31.309Z,10.30
2023-04-15T10:08:59.086Z,10.30
2023-04-15T10:11:30.340Z,10.50
2023-04-15T10:13:58.295Z,10.40
2023-04-15T10:16:31.493Z,10.50
2023-04-15T10:19:01.357Z,10.50
2023-04-15T10:21:30.763Z,10.50
2023-04-15T10:23:58.579Z,10.30
2023-04-15T10:26:25.463Z,10.40
2023-04-15T10:28:53.545Z,10.50
2023-04-15T10:31:20.967Z,10.50
2023-04-15T10:33:48.637Z,10.30
2023-04-15T10:36:16.015Z,10.30
2023-04-15T10:38:45.616Z,10.50
2023-04-15T10:41:25.226Z,10.00
2023-04-15T10:43:52.817Z,10.50
2023-04-15T10:46:40.911Z,10.70
2023-04-15T10:49:11.592Z,10.40
2023-04-15T10:51:41.751Z,10.30
2023-04-15T10:54:36.279Z,10.40
2023-04-15T10:57:08.539Z,10.20
2023-04-15T11:00:00.343Z,10.30
2023-04-15T11:02:58.917Z,10.50
2023-04-15T11:05:49.266Z,10.30
2023-04-15T11:08:16.512Z,10.90
2023-04-15T11:10:43.136Z,11.00
2023-04-15T11:13:09.800Z,11.20
2023-04-15T11:15:40.993Z,11.00
2023-04-15T11:18:14.647Z,11.10
2023-04-15T11:20:45.841Z,11.20
2023-04-15T11:23:14.957Z,11.40
2023-04-15T11:25:43.652Z,11.20
2023-04-15T11:28:12.539Z,11.10
2023-04-15T11:30:40.202Z,11.50
2023-04-15T11:33:09.157Z,11.80
2023-04-15T11:35:36.621Z,11.20
2023-04-15T11:38:05.205Z,11.30
2023-04-15T11:40:35.488Z,11.50
2023-04-15T11:43:08.116Z,11.20
2023-04-15T11:45:36.203Z,11.30
2023-04-15T11:48:23.609Z,11.30
2023-04-15T11:51:01.666Z,11.20
2023-04-15T11:53:42.045Z,11.00
2023-04-15T11:56:10.574Z,10.70
2023-04-15T11:58:39.107Z,10.50
2023-04-15T12:01:06.726Z,10.40
2023-04-15T12:03:43.830Z,9.70
2023-04-15T12:06:23.601Z,9.40
2023-04-15T12:09:00.541Z,9.20
2023-04-15T12:11:27.232Z,8.30
2023-04-15T12:13:58.927Z,7.80
2023-04-15T12:16:27.935Z,7.50
2023-04-15T12:18:56.919Z,7.40
2023-04-15T12:21:32.994Z,7.10
2023-04-15T12:24:03.878Z,7.20
2023-04-15T12:26:37.934Z,7.10
2023-04-15T12:29:08.174Z,7.00
2023-04-15T12:31:38.771Z,6.80
2023-04-15T12:34:09.150Z,6.90
2023-04-15T12:36:38.792Z,6.90
2023-04-15T12:39:06.253Z,7.00
2023-04-15T12:41:33.661Z,7.00
2023-04-15T12:44:00.627Z,7.00
2023-04-15T12:46:27.663Z,7.00
2023-04-15T12:48:54.466Z,7.10
2023-04-15T12:51:24.044Z,7.20
2023-04-15T12:53:51.296Z,7.30
2023-04-15T12:56:18.158Z,7.40
2023-04-15T12:58:44.891Z,7.60
2023-04-15T13:01:11.722Z,7.70
2023-04-15T13:03:38.789Z,7.80
2023-04-15T13:06:06.045Z,7.80
2023-04-15T13:08:32.897Z,7.80
2023-04-15T13:10:59.672Z,8.10
2023-04-15T13:13:27.401Z,8.10
2023-04-15T13:15:54.182Z,8.20
2023-04-15T13:18:20.939Z,8.40
2023-04-15T13:20:47.605Z,8.10
2023-04-15T13:23:14.700Z,8.20
2023-04-15T13:25:41.479Z,8.30
2023-04-15T13:28:08.193Z,8.40
2023-04-15T13:30:34.895Z,8.30
2023-04-15T13:33:01.652Z,8.40
2023-04-15T13:35:28.459Z,8.50
2023-04-15T13:37:56.061Z,8.50
2023-04-15T13:40:22.883Z,8.50
2023-04-15T13:42:49.605Z,8.60
2023-04-15T13:45:16.512Z,8.70
2023-04-15T13:47:43.359Z,8.70
2023-04-15T13:50:10.550Z,8.60
2023-04-15T13:52:37.255Z,8.50
2023-04-15T13:55:18.412Z,8.70
2023-04-15T13:57:46.581Z,8.40
2023-04-15T14:00:14.387Z,8.50
2023-04-15T14:02:42.308Z,8.30
2023-04-15T14:05:10.230Z,8.40
2023-04-15T14:07:37.263Z,8.50
2023-04-15T14:10:04.525Z,8.40
2023-04-15T14:12:31.357Z,8.40
2023-04-15T14:14:58.069Z,8.30
2023-04-15T14:17:25.167Z,8.30
2023-04-15T14:19:51.936Z,8.30
2023-04-15T14:22:18.959Z,8.20
2023-04-15T14:24:45.845Z,8.00
2023-04-15T14:27:12.638Z,7.60
2023-04-15T14:29:39.410Z,7.40
2023-04-15T14:32:12.254Z,7.40
2023-04-15T14:34:40.121Z,7.30
2023-04-15T14:37:06.970Z,7.30
2023-04-15T14:39:33.685Z,7.20
2023-04-15T14:42:01.260Z,7.30
2023-04-15T14:44:27.994Z,7.30
2023-04-15T14:46:55.765Z,7.40
2023-04-15T14:49:22.854Z,7.40
2023-04-15T14:51:49.557Z,7.40
2023-04-15T14:54:16.298Z,7.40
2023-04-15T14:56:42.984Z,7.40
2023-04-15T14:59:09.663Z,7.50
2023-04-15T15:01:36.501Z,7.40
2023-04-15T15:04:03.733Z,7.30
2023-04-15T15:06:31.448Z,7.40
2023-04-15T15:08:58.228Z,7.40
2023-04-15T15:11:25.477Z,7.50
2023-04-15T15:13:52.179Z,7.50
2023-04-15T15:16:18.929Z,7.50
2023-04-15T15:18:45.864Z,7.50
2023-04-15T15:21:13.142Z,7.60
2023-04-15T15:23:39.850Z,7.60
2023-04-15T15:26:06.747Z,7.60
2023-04-15T15:28:34.541Z,7.60
2023-04-15T15:31:01.421Z,7.60
2023-04-15T15:33:30.100Z,7.60
2023-04-15T15:35:58.198Z,7.70
2023-04-15T15:38:24.918Z,7.70
2023-04-15T15:40:52.136Z,7.60
2023-04-15T15:43:18.869Z,7.60
2023-04-15T15:45:45.811Z,7.50
2023-04-15T15:48:12.635Z,7.50
2023-04-15T15:50:39.418Z,7.50
2023-04-15T15:53:06.199Z,7.50
2023-04-15T15:55:33.065Z,7.30
2023-04-15T15:57:59.782Z,7.10
2023-04-15T16:00:26.448Z,6.90
2023-04-15T16:03:06.678Z,6.80
2023-04-15T16:05:35.459Z,6.60
2023-04-15T16:08:02.465Z,6.50
2023-04-15T16:10:29.168Z,6.30
2023-04-15T16:12:55.956Z,6.20
2023-04-15T16:15:25.114Z,6.20
2023-04-15T16:17:52.222Z,6.20
2023-04-15T16:20:19.036Z,6.10
2023-04-15T16:22:45.873Z,6.00
2023-04-15T16:25:12.585Z,6.00
2023-04-15T16:30:10.022Z,6.10
2023-04-15T16:32:36.766Z,6.10
2023-04-15T16:35:03.827Z,6.00
2023-04-15T16:37:32.861Z,6.20
2023-04-15T16:39:59.590Z,6.00
2023-04-15T16:42:26.303Z,6.00
2023-04-15T16:44:53.058Z,6.00
2023-04-15T16:47:19.800Z,6.20
2023-04-15T16:49:46.498Z,6.20
2023-04-15T16:52:13.281Z,6.10
2023-04-15T16:54:41.584Z,6.00
2023-04-15T16:57:08.996Z,6.00
2023-04-15T16:59:36.107Z,6.00
2023-04-15T17:02:02.938Z,5.90
2023-04-15T17:04:29.980Z,5.90
2023-04-15T17:06:56.879Z,5.90
2023-04-15T17:09:23.847Z,5.80
2023-04-15T17:11:50.772Z,5.80
2023-04-15T17:14:17.558Z,5.90
2023-04-15T17:16:44.274Z,5.80
2023-04-15T17:19:10.946Z,5.80
2023-04-15T17:21:37.713Z,5.80
2023-04-15T17:24:06.032Z,5.80
2023-04-15T17:26:32.924Z,5.80
2023-04-15T17:28:59.605Z,5.80
2023-04-15T17:31:26.515Z,5.90
2023-04-15T17:34:02.792Z,5.90
2023-04-15T17:36:37.569Z,5.90
2023-04-15T17:39:04.725Z,5.70
2023-04-15T17:41:31.640Z,5.50
2023-04-15T17:43:58.402Z,5.50
2023-04-15T17:46:25.427Z,5.50
2023-04-15T17:48:52.220Z,5.50
2023-04-15T17:51:18.887Z,5.50
2023-04-15T17:53:45.609Z,5.50
2023-04-15T17:56:12.337Z,5.40
2023-04-15T17:58:39.255Z,5.40
2023-04-15T18:01:06.592Z,5.50
2023-04-15T18:03:33.434Z,5.40
2023-04-15T18:06:01.323Z,5.50
2023-04-15T18:08:28.994Z,5.30
2023-04-15T18:10:56.380Z,5.30
2023-04-15T18:13:23.544Z,5.30
2023-04-15T18:15:51.269Z,5.20
2023-04-15T18:18:18.102Z,5.30
2023-04-15T18:20:44.862Z,5.20
2023-04-15T18:23:11.658Z,5.20
2023-04-15T18:25:38.397Z,5.10
2023-04-15T18:28:05.796Z,5.10
2023-04-15T18:30:32.531Z,5.00
2023-04-15T18:32:59.319Z,5.00
2023-04-15T18:35:26.129Z,5.00
2023-04-15T18:37:53.207Z,5.00
2023-04-15T18:40:19.964Z,5.00
2023-04-15T18:42:46.657Z,5.00
2023-04-15T18:45:13.521Z,5.00
2023-04-15T18:47:40.437Z,4.90
2023-04-15T18:50:08.110Z,4.90
2023-04-15T18:52:34.938Z,4.90
2023-04-15T18:55:03.297Z,5.10
2023-04-15T18:57:35.172Z,5.00
2023-04-15T19:00:04.374Z,5.00
2023-04-15T19:02:31.239Z,5.00
2023-04-15T19:04:58.102Z,5.00
2023-04-15T19:07:24.882Z,5.00
2023-04-15T19:09:51.629Z,5.00
2023-04-15T19:12:18.314Z,5.00
2023-04-15T19:14:45.004Z,5.00
2023-04-15T19:17:11.773Z,5.00
2023-04-15T19:19:38.821Z,5.00
2023-04-15T19:22:05.976Z,5.10
2023-04-15T19:24:33.298Z,5.10
2023-04-15T19:27:01.454Z,5.10
2023-04-15T19:29:31.038Z,5.10
2023-04-15T19:31:57.740Z,5.10
2023-04-15T19:34:25.037Z,5.10
2023-04-15T19:36:51.764Z,5.10
2023-04-15T19:39:18.789Z,5.10
2023-04-15T19:41:45.892Z,5.00
2023-04-15T19:44:13.037Z,5.00
2023-04-15T19:46:41.025Z,5.00
2023-04-15T19:49:07.876Z,5.00
2023-04-15T19:51:34.778Z,4.90
2023-04-15T19:54:01.720Z,4.90
2023-04-15T19:56:29.329Z,4.90
2023-04-15T19:58:56.055Z,4.90
2023-04-15T20:01:22.942Z,4.80
2023-04-15T20:03:51.329Z,4.70
2023-04-15T20:06:18.298Z,4.60
2023-04-15T20:08:45.055Z,4.50
2023-04-15T20:11:12.529Z,4.50
2023-04-15T20:13:41.902Z,4.40
2023-04-15T20:16:08.798Z,4.50
2023-04-15T20:18:35.558Z,4.30
2023-04-15T20:21:02.378Z,4.30
2023-04-15T20:23:29.137Z,4.30
2023-04-15T20:25:55.920Z,4.20
2023-04-15T20:28:25.713Z,4.20
2023-04-15T20:30:53.683Z,4.20
2023-04-15T20:33:22.090Z,4.20
2023-04-15T20:35:48.944Z,4.20
2023-04-15T20:38:16.374Z,4.40
2023-04-15T20:40:43.577Z,4.40
2023-04-15T20:43:10.344Z,4.20
2023-04-15T20:45:37.259Z,4.10
2023-04-15T20:48:04.336Z,4.10
2023-04-15T20:50:31.291Z,4.10
2023-04-15T20:52:58.026Z,4.10
2023-04-15T20:55:24.696Z,4.10
2023-04-15T20:57:51.780Z,4.10
2023-04-15T21:00:18.600Z,4.00
2023-04-15T21:02:45.369Z,4.10
2023-04-15T21:05:12.253Z,4.00
2023-04-15T21:07:39.024Z,4.00
2023-04-15T21:10:06.207Z,4.00
2023-04-15T21:12:32.904Z,4.10
2023-04-15T21:14:59.630Z,4.10
2023-04-15T21:17:26.369Z,4.10
2023-04-15T21:19:53.032Z,4.10
2023-04-15T21:22:19.715Z,4.00
2023-04-15T21:24:46.671Z,4.00
2023-04-15T21:27:13.394Z,4.00
2023-04-15T21:29:40.357Z,4.10
2023-04-15T21:32:07.263Z,4.10
2023-04-15T21:34:34.101Z,4.00
2023-04-15T21:37:00.873Z,4.00
2023-04-15T21:39:27.639Z,3.90
2023-04-15T21:41:54.389Z,3.90
2023-04-15T21:44:21.116Z,3.80
2023-04-15T21:46:47.931Z,3.80
2023-04-15T21:49:14.866Z,3.80
2023-04-15T21:51:41.547Z,4.00
2023-04-15T21:54:08.316Z,3.90
2023-04-15T21:56:35.296Z,4.00
2023-04-15T21:59:01.984Z,3.90
2023-04-15T22:01:28.812Z,3.90
2023-04-15T22:03:55.761Z,3.80
2023-04-15T22:06:22.651Z,3.80
2023-04-15T22:08:56.888Z,3.80
2023-04-15T22:11:28.424Z,3.70
2023-04-15T22:13:57.145Z,3.70
2023-04-15T22:16:25.857Z,3.80
2023-04-15T22:18:52.713Z,3.60
2023-04-15T22:21:19.744Z,3.60
2023-04-15T22:23:47.650Z,3.60
2023-04-15T22:26:14.651Z,3.60
2023-04-15T22:28:41.732Z,3.60
2023-04-15T22:31:08.646Z,3.60
2023-04-15T22:33:35.466Z,3.60
2023-04-15T22:36:02.213Z,3.50
2023-04-15T22:38:28.919Z,3.50
2023-04-15T22:40:55.743Z,3.60
2023-04-15T22:43:22.596Z,3.60
2023-04-15T22:45:50.815Z,3.50
2023-04-15T22:48:18.459Z,3.50
2023-04-15T22:50:45.360Z,3.50
2023-04-15T22:53:12.084Z,3.50
2023-04-15T22:55:38.774Z,3.50
2023-04-15T22:58:05.550Z,3.40
2023-04-15T23:00:32.211Z,3.50
2023-04-15T23:02:58.991Z,3.40
2023-04-15T23:05:25.977Z,3.50
2023-04-15T23:07:52.884Z,3.40
2023-04-15T23:10:19.548Z,3.40
2023-04-15T23:12:46.658Z,3.40
2023-04-15T23:15:13.338Z,3.40
2023-04-15T23:17:41.316Z,3.40
2023-04-15T23:20:08.349Z,3.40
2023-04-15T23:22:38.150Z,3.50
2023-04-15T23:25:06.211Z,3.40
2023-04-15T23:27:33.155Z,3.40
2023-04-15T23:29:59.860Z,3.40
2023-04-15T23:32:27.396Z,3.40
2023-04-15T23:34:54.322Z,3.40
2023-04-15T23:37:21.114Z,3.40
2023-04-15T23:39:47.835Z,3.40
2023-04-15T23:42:14.648Z,3.40
2023-04-15T23:44:41.402Z,3.60
2023-04-15T23:47:08.235Z,3.60
2023-04-15T23:49:36.515Z,3.50
2023-04-15T23:52:03.564Z,3.60
2023-04-15T23:54:30.306Z,3.60
2023-04-15T23:56:57.002Z,3.50
2023-04-15T23:59:23.705Z,3.50
